Snow/Ice From: 24-10-2018 05:00 Until: 09:00 warning for: Snow/Ice Level: Yellow info button
suomi:
Liikennesää: Ajokeli muuttuu huonoksi aamulla tienpintojen jäätymisen vuoksi.

svenska:
Trafikvädret: Väglaget blir dåligt på morgonen p.g.a. tillfrysning av vägytor.

english:
Traffic weather warning: Bad road conditions are expected in the morning because of ice-covered roads. 


Thunder radar more information blitzortung!


Löydät sääaseman tiedot myös:

European Weather Network

Finland Weather Exchange

Weather Underground

AWEKAS



Weather Underground säähistoriasivu

Päivittäin yhteenveto Kesäkuu 23, 2017 Yksiköt:  Englantilaiset    Metriset   Molemmat
« Edellinen Päivä
Seuraava Päivä »
Päivittäin Viikoittain Kuukausittain Vuosittain Mukautettu
  Korkea: Matala: Keskiarvo:
Lämpötila: TemperatureF °F 41.9 °F 51 °F
Kastepiste: DewpointF °F 39.4 °F 42.8 °F
Kosteus: Humidity % 52 % 74 %
Tuulen nopeus: WindSpeedMPH mph 0.0 mph 0.3 mph
Tuulenpuuska: WindSpeedGustMPH mph - -
Tuuli:- - WNW
Ilmanpaine: PressureIn in 29.67 in -
Sade: 0.00 in    
Historical Graphs
 
 
Taulukkotiedot Kesäkuu 23, 2017
Aika Lämpötila Kastepiste Ilmanpaine Tuuli Tuulen nopeus Tuulenpuuska Kosteus Sademäärä (tunneittain)
TemperatureF °F DewpointF °F PressureIn in Calm     Humidity % HourlyPrecipIn in
00:00 44.8 °F 40.1 °F 29.69 in NW 1.0 mph 4.0 mph 84 % 0.00 in
00:15 45.0 °F 40.5 °F 29.69 in WNW 1.0 mph 4.0 mph 84 % 0.00 in
00:30 45.1 °F 40.6 °F 29.69 in NW 1.0 mph 4.0 mph 84 % 0.00 in
00:45 45.1 °F 40.6 °F 29.69 in Calm   3.0 mph 84 % 0.00 in
01:00 45.0 °F 40.8 °F 29.69 in Calm   2.0 mph 85 % 0.00 in
01:15 44.4 °F 40.6 °F 29.69 in Calm   2.0 mph 86 % 0.00 in
01:30 43.7 °F 40.1 °F 29.69 in Calm   1.0 mph 87 % 0.00 in
01:45 43.2 °F 39.6 °F 29.69 in Calm     87 % 0.00 in
02:00 43.2 °F 40.1 °F 29.69 in Calm   2.0 mph 89 % 0.00 in
02:15 43.0 °F 39.6 °F 29.70 in Calm   3.0 mph 88 % 0.00 in
02:30 42.4 °F 39.4 °F 29.70 in Calm   2.0 mph 89 % 0.00 in
02:45 42.3 °F 39.6 °F 29.70 in Calm   2.0 mph 90 % 0.00 in
03:00 42.6 °F 39.9 °F 29.70 in Calm   4.0 mph 90 % 0.00 in
03:15 43.0 °F 40.3 °F 29.70 in Calm   3.0 mph 90 % 0.00 in
03:30 43.2 °F 40.1 °F 29.70 in Calm   2.0 mph 89 % 0.00 in
03:45 43.2 °F 40.1 °F 29.70 in Calm     89 % 0.00 in
04:00 42.6 °F 39.7 °F 29.71 in Calm     89 % 0.00 in
04:15 42.1 °F 39.4 °F 29.71 in Calm     90 % 0.00 in
04:30 41.9 °F 39.4 °F 29.71 in Calm     91 % 0.00 in
04:45 42.1 °F 39.9 °F 29.71 in Calm     92 % 0.00 in
05:00 42.6 °F 40.5 °F 29.71 in Calm   2.0 mph 92 % 0.00 in
05:15 43.3 °F 40.8 °F 29.71 in Calm   3.0 mph 91 % 0.00 in
05:30 43.9 °F 41.4 °F 29.71 in Calm     91 % 0.00 in
05:45 44.2 °F 41.5 °F 29.72 in Calm   3.0 mph 90 % 0.00 in
06:00 44.4 °F 41.7 °F 29.72 in NW 1.0 mph 4.0 mph 90 % 0.00 in
06:15 44.8 °F 41.9 °F 29.72 in Calm   3.0 mph 90 % 0.00 in
06:30 45.0 °F 42.3 °F 29.71 in Calm   3.0 mph 90 % 0.00 in
06:45 45.9 °F 42.8 °F 29.72 in Calm   1.0 mph 89 % 0.00 in
07:00 46.6 °F 43.2 °F 29.71 in Calm   4.0 mph 88 % 0.00 in
07:15 47.3 °F 43.7 °F 29.71 in Calm   3.0 mph 87 % 0.00 in
07:30 47.8 °F 43.9 °F 29.71 in Calm   3.0 mph 86 % 0.00 in
07:45 47.8 °F 43.5 °F 29.72 in Calm   1.0 mph 85 % 0.00 in
08:00 48.0 °F 43.9 °F 29.72 in Calm   1.0 mph 85 % 0.00 in
08:15 48.4 °F 44.1 °F 29.72 in Calm     85 % 0.00 in
08:30 48.7 °F 44.2 °F 29.72 in Calm     84 % 0.00 in
08:45 48.9 °F 43.7 °F 29.72 in Calm   3.0 mph 82 % 0.00 in
09:00 49.1 °F 43.9 °F 29.72 in Calm   1.0 mph 82 % 0.00 in
09:15 49.5 °F 43.9 °F 29.72 in Calm   3.0 mph 81 % 0.00 in
09:30 49.5 °F 43.9 °F 29.72 in Calm   3.0 mph 81 % 0.00 in
09:45 49.8 °F 44.1 °F 29.72 in Calm   4.0 mph 80 % 0.00 in
10:00 51.1 °F 44.8 °F 29.72 in NW 2.0 mph 6.0 mph 79 % 0.00 in
10:15 51.3 °F 43.9 °F 29.73 in NW 2.0 mph 8.0 mph 76 % 0.00 in
10:30 52.2 °F 44.8 °F 29.73 in NW 2.0 mph 6.0 mph 76 % 0.00 in
10:45 51.6 °F 44.8 °F 29.72 in NW 1.0 mph 5.0 mph 77 % 0.00 in
11:00 52.5 °F 44.1 °F 29.72 in NW 2.0 mph 9.0 mph 73 % 0.00 in
11:15 51.4 °F 43.7 °F 29.73 in NW 2.0 mph 6.0 mph 75 % 0.00 in
11:30 51.4 °F 44.2 °F 29.73 in Calm   5.0 mph 76 % 0.00 in
11:45 51.8 °F 43.7 °F 29.73 in Calm   3.0 mph 74 % 0.00 in
12:00 52.2 °F 44.6 °F 29.73 in Calm   2.0 mph 75 % 0.00 in
12:15 53.2 °F 43.7 °F 29.73 in Calm   3.0 mph 70 % 0.00 in
12:30 54.0 °F 44.4 °F 29.73 in NNW 1.0 mph 3.0 mph 70 % 0.00 in
12:45 54.3 °F 43.9 °F 29.73 in WNW 1.0 mph 4.0 mph 68 % 0.00 in
13:00 53.6 °F 44.4 °F 29.73 in Calm   2.0 mph 71 % 0.00 in
13:15 55.0 °F 44.6 °F 29.73 in Calm   3.0 mph 68 % 0.00 in
13:30 54.9 °F 45.0 °F 29.72 in Calm   2.0 mph 69 % 0.00 in
13:45 55.0 °F 44.6 °F 29.72 in Calm   1.0 mph 68 % 0.00 in
14:00 56.7 °F 46.6 °F 29.72 in Calm   3.0 mph 69 % 0.00 in
14:15 56.7 °F 45.5 °F 29.72 in NW 1.0 mph 6.0 mph 66 % 0.00 in
14:30 56.8 °F 46.0 °F 29.72 in Calm   4.0 mph 67 % 0.00 in
14:45 56.8 °F 44.1 °F 29.72 in Calm   2.0 mph 62 % 0.00 in
15:00 57.0 °F 43.7 °F 29.72 in NW 1.0 mph 6.0 mph 61 % 0.00 in
15:15 57.0 °F 42.4 °F 29.71 in West 1.0 mph 5.0 mph 58 % 0.00 in
15:30 58.5 °F 43.7 °F 29.71 in SW 2.0 mph 6.0 mph 58 % 0.00 in
15:45 58.5 °F 43.7 °F 29.71 in Calm   1.0 mph 58 % 0.00 in
16:00 59.2 °F 43.9 °F 29.71 in Calm   1.0 mph 57 % 0.00 in
16:15 58.8 °F 44.6 °F 29.71 in Calm   4.0 mph 59 % 0.00 in
16:30 59.5 °F 44.8 °F 29.71 in Calm   1.0 mph 58 % 0.00 in
16:45 60.1 °F 44.4 °F 29.70 in Calm   3.0 mph 56 % 0.00 in
17:00 59.5 °F 43.0 °F 29.70 in WSW 1.0 mph 5.0 mph 54 % 0.00 in
17:15 60.1 °F 43.0 °F 29.70 in West 1.0 mph 4.0 mph 53 % 0.00 in
17:30 60.1 °F 42.4 °F 29.70 in NW 1.0 mph 5.0 mph 52 % 0.00 in
17:45 59.5 °F 44.2 °F 29.70 in Calm   3.0 mph 57 % 0.00 in
18:00 61.3 °F 45.0 °F 29.69 in NW 1.0 mph 3.0 mph 55 % 0.00 in
18:15 60.8 °F 45.5 °F 29.69 in Calm   2.0 mph 57 % 0.00 in
18:30 60.4 °F 44.8 °F 29.69 in Calm   1.0 mph 56 % 0.00 in
18:45 60.4 °F 43.3 °F 29.70 in Calm     53 % 0.00 in
19:00 60.1 °F 42.8 °F 29.69 in Calm   1.0 mph 53 % 0.00 in
19:15 60.8 °F 44.1 °F 29.70 in Calm   1.0 mph 54 % 0.00 in
19:30 59.4 °F 43.5 °F 29.70 in SE 1.0 mph 5.0 mph 56 % 0.00 in
19:45 58.3 °F 44.8 °F 29.69 in Calm     61 % 0.00 in
20:00 57.4 °F 45.3 °F 29.69 in Calm     64 % 0.00 in
20:15 57.6 °F 46.8 °F 29.69 in Calm     67 % 0.00 in
20:30 57.6 °F 46.4 °F 29.69 in Calm     66 % 0.00 in
20:45 58.5 °F 45.9 °F 29.68 in Calm     63 % 0.00 in
21:00 58.5 °F 45.0 °F 29.68 in Calm   4.0 mph 61 % 0.00 in
21:15 57.9 °F 46.2 °F 29.68 in Calm     65 % 0.00 in
21:30 57.6 °F 45.1 °F 29.68 in Calm   4.0 mph 63 % 0.00 in
21:45 57.0 °F 45.0 °F 29.68 in Calm   4.0 mph 64 % 0.00 in
22:00 56.5 °F 45.1 °F 29.68 in Calm   2.0 mph 66 % 0.00 in
22:15 55.4 °F 45.9 °F 29.68 in Calm     70 % 0.00 in
22:30 54.1 °F 45.7 °F 29.69 in Calm     73 % 0.00 in
22:45 52.9 °F 45.5 °F 29.69 in Calm     76 % 0.00 in
23:00 51.4 °F 45.1 °F 29.68 in Calm     79 % 0.00 in
23:15 50.4 °F 44.8 °F 29.68 in Calm     81 % 0.00 in
23:30 49.1 °F 44.2 °F 29.68 in Calm     83 % 0.00 in
23:45 47.8 °F 43.5 °F 29.67 in Calm     85 % 0.00 in
Esan sääasema
Terveisin Weather Underground - 2.75 mb

Alkuperäinen skripti  Jim McMurry - jmcmurry@mwt.net Sovitettu myös templatelle  Wim van der Kuil - Leuven-Template.eu

Laitteet joita käytämme:

Sääasema
Davis VP2

Sääasemaohjelma
Cumulus

Sääaseman tietokone
Asus EeePC

Palveluntarjoaja
Suncomet

Davis VP2

Cumulus

Asus EeePC

Suncomet